Daishinmaru No.3 — JM6362 — position and weather

sailwx.info

Track history (hours):
 
Tides and Currents Weather Stations Pressure Air Temp Water Temp Dewpoint Dewpoint Depression Visibility Wind Speed Wind Dir Waves Ship Positions

Daishinmaru No.3

Last reported at 2017-Dec-09 09:26 UTC. Time now 2017-Dec-11 01:59 UTC.
Position N 33°42' E 129°57'.

Length 70 m; draft 3.5 m.

Type: Cargo ship. MMSI: 431600252.

Date/timePositionNaut miles runAvg speedWind from/ knotsBaromVisibWave heightAir tempDewpointWater temp
2017-Dec-09 09:26N 33°42' E 129°57'410.5
2017-Dec-09 09:00N 33°44' E 130°02'510.3
2017-Dec-09 08:30N 33°47' E 130°07'510.2
2017-Dec-09 08:00N 33°50' E 130°12'510.4
2017-Dec-09 07:30N 33°53' E 130°17'510.4
2017-Dec-09 07:00N 33°55' E 130°23'510.7
2017-Dec-09 06:30N 33°57' E 130°29'510.9
2017-Dec-09 06:00N 33°58' E 130°35'510.9
2017-Dec-09 05:30N 33°58' E 130°42'3 5.4
2017-Dec-09 05:00N 33°56' E 130°45'0 0.0
2017-Dec-09 04:29N 33°56' E 130°45'0 0.0
2017-Dec-09 03:59N 33°56' E 130°45'0 0.0
2017-Dec-09 03:29N 33°56' E 130°45'0 0.0
2017-Dec-09 02:59N 33°56' E 130°45'0 0.0
2017-Dec-09 02:29N 33°56' E 130°45'0 0.0
2017-Dec-09 01:59N 33°56' E 130°45'0 0.0
2017-Dec-09 01:29N 33°56' E 130°45'0 0.0
2017-Dec-09 00:59N 33°56' E 130°45'0 0.0
2017-Dec-09 00:29N 33°56' E 130°45'0 0.0
2017-Dec-08 23:59N 33°56' E 130°45'0 0.0
2017-Dec-08 23:23N 33°56' E 130°45'0 0.0
2017-Dec-08 22:59N 33°56' E 130°45'0 0.0
2017-Dec-08 22:29N 33°56' E 130°45'0 0.8
2017-Dec-08 22:00N 33°56' E 130°44'3 6.5
2017-Dec-08 21:30N 33°58' E 130°48'5 9.2
2017-Dec-08 21:00N 33°58' E 130°53'0 0.6
2017-Dec-08 20:29N 33°58' E 130°54'0 0.1
2017-Dec-08 19:59N 33°58' E 130°54'0 0.1
2017-Dec-08 19:29N 33°58' E 130°54'0 0.1
2017-Dec-08 18:59N 33°58' E 130°54'0 0.0
2017-Dec-08 18:29N 33°58' E 130°54'0 0.1
2017-Dec-08 17:59N 33°58' E 130°54'0 0.0
2017-Dec-08 17:29N 33°58' E 130°54'0 0.1
2017-Dec-08 16:53N 33°58' E 130°54'0 0.0
2017-Dec-08 16:29N 33°58' E 130°54'0 0.0
2017-Dec-08 15:59N 33°58' E 130°54'0 0.1
2017-Dec-08 15:29N 33°58' E 130°54'0 0.1
2017-Dec-08 14:59N 33°58' E 130°54'0 0.0
2017-Dec-08 14:29N 33°58' E 130°54'0 0.0
2017-Dec-08 13:59N 33°58' E 130°54'0 0.0
2017-Dec-08 13:26N 33°58' E 130°54'0 0.0
2017-Dec-08 12:59N 33°58' E 130°54'0 0.0
2017-Dec-08 12:29N 33°58' E 130°54'0 0.0
2017-Dec-08 11:59N 33°58' E 130°54'0 0.0
2017-Dec-08 11:29N 33°58' E 130°54'0 0.1
2017-Dec-08 10:59N 33°58' E 130°54'0 0.1
2017-Dec-08 10:29N 33°58' E 130°54'0 0.1
2017-Dec-08 09:59N 33°58' E 130°54'0 0.1
2017-Dec-08 09:29N 33°58' E 130°54'0 0.0
2017-Dec-08 08:59N 33°58' E 130°54'0 0.0
2017-Dec-08 08:29N 33°58' E 130°54'0 0.0
2017-Dec-08 07:59N 33°58' E 130°54'0 0.0
2017-Dec-08 07:29N 33°58' E 130°54'0 0.0
2017-Dec-08 06:59N 33°58' E 130°54'0 0.0
2017-Dec-08 06:29N 33°58' E 130°54'0 0.0
2017-Dec-08 05:59N 33°58' E 130°54'0 0.0
2017-Dec-08 05:29N 33°58' E 130°54'0 0.0
2017-Dec-08 04:59N 33°58' E 130°54'0 0.1
2017-Dec-08 04:29N 33°58' E 130°54'0 0.1
2017-Dec-08 03:59N 33°58' E 130°54'0 0.0
2017-Dec-08 03:29N 33°58' E 130°54'0 0.0
2017-Dec-08 02:59N 33°58' E 130°54'0 0.0
2017-Dec-08 02:28N 33°58' E 130°54'0 0.0
2017-Dec-08 01:59N 33°58' E 130°54'0 0.0
2017-Dec-08 01:29N 33°58' E 130°54'0 0.0
2017-Dec-08 00:59N 33°58' E 130°54'0 0.0
2017-Dec-08 00:29N 33°58' E 130°54'0 0.0
2017-Dec-07 23:59N 33°58' E 130°54'0 0.0
2017-Dec-07 23:29N 33°58' E 130°54'0 0.0
2017-Dec-07 22:59N 33°58' E 130°54'0 0.0
2017-Dec-07 22:26N 33°58' E 130°54'0 0.0
2017-Dec-07 21:59N 33°58' E 130°54'0 0.1
2017-Dec-07 21:29N 33°58' E 130°54'0 0.0
2017-Dec-07 20:59N 33°58' E 130°54'0 0.0
2017-Dec-07 20:29N 33°58' E 130°54'0 0.0
2017-Dec-07 19:59N 33°58' E 130°54'0 0.0
2017-Dec-07 19:28N 33°58' E 130°54'0 0.0
2017-Dec-07 18:58N 33°58' E 130°54'0 0.0
2017-Dec-07 18:28N 33°58' E 130°54'0 0.0
2017-Dec-07 17:59N 33°58' E 130°54'0 0.1
2017-Dec-07 17:25N 33°58' E 130°54'0 0.1
2017-Dec-07 16:59N 33°58' E 130°54'0 0.0
2017-Dec-07 16:28N 33°58' E 130°54'0 0.2
2017-Dec-07 16:01N 33°58' E 130°54'5 9.0
2017-Dec-07 15:30N 33°58' E 130°48'510.8
2017-Dec-07 15:00N 33°57' E 130°42'611.2
2017-Dec-07 14:30N 33°57' E 130°35'510.8
2017-Dec-07 14:00N 33°55' E 130°29'510.9
2017-Dec-07 13:30N 33°51' E 130°25'611.0
2017-Dec-07 13:00N 33°47' E 130°20'510.9
2017-Dec-07 12:30N 33°43' E 130°15'510.9
2017-Dec-07 12:00N 33°40' E 130°10'710.9
2017-Dec-07 11:21N 33°37' E 130°02'  
2017-Dec-03 07:11N 33°20' E 129°49'15 8.2
2017-Dec-03 05:23N 33°35' E 129°48'611.0
2017-Dec-03 04:48N 33°39' E 129°54'411.3
2017-Dec-03 04:25N 33°42' E 129°58'511.3
2017-Dec-03 04:00N 33°45' E 130°02'611.0
2017-Dec-03 03:30N 33°48' E 130°08'611.2
2017-Dec-03 03:00N 33°51' E 130°14'611.1
2017-Dec-03 02:30N 33°54' E 130°19'510.8
2017-Dec-03 02:00N 33°56' E 130°25'511.0
2017-Dec-03 01:30N 33°57' E 130°32'510.9
2017-Dec-03 01:00N 33°58' E 130°38'511.0
2017-Dec-03 00:30N 33°58' E 130°45'611.5
2017-Dec-03 00:00N 33°57' E 130°52'4 8.7
2017-Dec-02 23:30N 33°57' E 130°57'510.3
2017-Dec-02 23:01N 33°57' E 131°03'611.6
2017-Dec-02 22:31N 33°51' E 131°03'510.7
2017-Dec-02 22:00N 33°47' E 131°00'0 0.6
2017-Dec-02 21:27N 33°46' E 130°60'0 0.0
2017-Dec-02 20:57N 33°46' E 130°60'0 0.0
2017-Dec-02 20:27N 33°46' E 130°60'0 0.0
2017-Dec-02 19:57N 33°46' E 130°60'0 0.0
2017-Dec-02 19:27N 33°46' E 130°60'0 0.0
2017-Dec-02 18:57N 33°46' E 130°60'0 0.0
2017-Dec-02 18:27N 33°46' E 130°60'0 0.0
2017-Dec-02 17:57N 33°46' E 130°60'0 0.0
2017-Dec-02 17:27N 33°46' E 130°60'0 0.0
2017-Dec-02 16:57N 33°46' E 130°60'0 0.0
2017-Dec-02 16:27N 33°46' E 130°60'0 0.0
2017-Dec-02 15:57N 33°46' E 130°60'0 0.0
2017-Dec-02 15:27N 33°46' E 130°60'0 0.0
2017-Dec-02 14:57N 33°46' E 130°60'0 0.0
2017-Dec-02 14:27N 33°46' E 130°60'0 0.0
2017-Dec-02 13:57N 33°46' E 130°60'0 0.0
2017-Dec-02 13:27N 33°46' E 130°60'0 0.0
2017-Dec-02 12:57N 33°46' E 130°60'0 0.0
2017-Dec-02 12:27N 33°46' E 130°60'0 0.0
2017-Dec-02 11:57N 33°46' E 130°60'0 0.0
2017-Dec-02 11:15N 33°46' E 130°60'0 0.0
2017-Dec-02 11:00N 33°46' E 130°60'0 0.0
2017-Dec-02 10:27N 33°46' E 130°60'0 0.0
2017-Dec-02 09:57N 33°46' E 130°60'0 0.0
2017-Dec-02 09:27N 33°46' E 130°60'0 0.0
2017-Dec-02 08:57N 33°46' E 130°60'0 0.0
2017-Dec-02 08:27N 33°46' E 130°60'0 0.0
2017-Dec-02 07:57N 33°46' E 130°60'0 0.0
2017-Dec-02 07:27N 33°46' E 130°60'0 0.0
2017-Dec-02 06:57N 33°46' E 130°60'0 0.0
2017-Dec-02 06:21N 33°46' E 130°60'0 0.0
2017-Dec-02 05:57N 33°46' E 130°60'0 0.0
2017-Dec-02 05:30N 33°46' E 130°60'0 0.0
2017-Dec-02 04:57N 33°46' E 130°60'0 0.0
2017-Dec-02 04:15N 33°46' E 130°60'0 0.0
2017-Dec-02 03:57N 33°46' E 130°60'0 0.0
2017-Dec-02 03:21N 33°46' E 130°60'0 0.0
2017-Dec-02 02:54N 33°46' E 130°60'0 0.0
2017-Dec-02 02:21N 33°46' E 130°60'0 0.9
2017-Dec-02 02:00N 33°47' E 131°00'1 1.0
2017-Dec-02 01:22N 33°47' E 131°00'0 0.0
2017-Dec-02 00:58N 33°47' E 131°00'0 0.0
2017-Dec-02 00:28N 33°47' E 131°00'0 0.0
2017-Dec-01 23:58N 33°47' E 131°00'0 0.0
2017-Dec-01 23:28N 33°47' E 131°00'0 0.0
2017-Dec-01 22:58N 33°47' E 131°00'2 3.7
2017-Dec-01 22:31N 33°48' E 131°02'2 4.9
2017-Dec-01 22:00N 33°49' E 131°05'3 6.3
2017-Dec-01 21:30N 33°48' E 131°08'510.2
2017-Dec-01 21:00N 33°48' E 131°15'510.2
2017-Dec-01 20:30N 33°47' E 131°21'510.3
2017-Dec-01 20:00N 33°47' E 131°27'510.5
2017-Dec-01 19:30N 33°47' E 131°33'510.5
2017-Dec-01 19:00N 33°47' E 131°40'510.5
2017-Dec-01 18:29N 33°46' E 131°46'1310.4
2017-Dec-01 17:13N 33°46' E 132°02'210.1
2017-Dec-01 17:00N 33°46' E 132°04'610.8
2017-Dec-01 16:28N 33°49' E 132°10'1110.5
2017-Dec-01 15:24N 33°51' E 132°24'612.1
2017-Dec-01 14:54N 33°53' E 132°31'512.7
2017-Dec-01 14:30N 33°54' E 132°36'613.1
2017-Dec-01 14:00N 33°58' E 132°43'9210.3
2017-Dec-01 05:03N 34°39' E 134°23'110.1
2017-Dec-01 04:55N 34°39' E 134°24'410.1
2017-Dec-01 04:30N 34°41' E 134°29'610.0
2017-Dec-01 03:52N 34°42' E 134°37'410.1
2017-Dec-01 03:27N 34°43' E 134°42'4 9.2
2017-Dec-01 03:00N 34°45' E 134°46'0 0.8
2017-Dec-01 02:30N 34°45' E 134°46'0 0.0
2017-Dec-01 01:59N 34°45' E 134°46'0 0.0
2017-Dec-01 01:30N 34°45' E 134°46'0 0.0
2017-Dec-01 01:00N 34°45' E 134°46'0 0.0
2017-Dec-01 00:30N 34°45' E 134°46'0 0.0
2017-Dec-01 00:00N 34°45' E 134°46'0 0.0
2017-Nov-30 23:30N 34°45' E 134°46'0 0.0
2017-Nov-30 23:00N 34°45' E 134°46'0 0.1
2017-Nov-30 22:30N 34°45' E 134°46'1 1.4
2017-Nov-30 22:00N 34°45' E 134°46'0 0.0
2017-Nov-30 21:31N 34°45' E 134°46'0 0.0
2017-Nov-30 20:55N 34°45' E 134°46'0 0.0
2017-Nov-30 20:31N 34°45' E 134°46'0 0.0
2017-Nov-30 20:01N 34°45' E 134°46'0 0.0
2017-Nov-30 19:30N 34°45' E 134°46'0 0.0
2017-Nov-30 19:00N 34°45' E 134°46'0 0.0
2017-Nov-30 18:30N 34°45' E 134°46'0 0.0
2017-Nov-30 16:48N 34°45' E 134°46'0 0.0
2017-Nov-30 16:30N 34°45' E 134°46'0 0.0
2017-Nov-30 15:54N 34°45' E 134°46'0 0.0
2017-Nov-30 13:54N 34°45' E 134°46'0 0.0
2017-Nov-30 12:18N 34°45' E 134°46'0 0.1
2017-Nov-30 11:48N 34°45' E 134°46'0 0.0
2017-Nov-30 11:24N 34°45' E 134°46'0 0.0
2017-Nov-30 11:00N 34°45' E 134°46'0 0.1
2017-Nov-30 10:00N 34°45' E 134°46'0 0.0
2017-Nov-30 09:30N 34°45' E 134°46'0 0.0
2017-Nov-30 09:00N 34°45' E 134°46'0 0.0
2017-Nov-30 07:48N 34°45' E 134°46'0 0.0
2017-Nov-30 07:30N 34°45' E 134°46'0 0.0
2017-Nov-30 07:00N 34°45' E 134°46'0 0.0
2017-Nov-30 06:24N 34°45' E 134°46'0 0.0
2017-Nov-30 06:00N 34°45' E 134°46'0 0.0
2017-Nov-30 05:24N 34°45' E 134°46'1 3.4
2017-Nov-30 05:00N 34°43' E 134°45'4 8.3
2017-Nov-30 04:30N 34°44' E 134°41'4 0.3
2017-Nov-29 15:18N 34°47' E 134°38'  
Track history (hours):
 
Tides and Currents Weather Stations Pressure Air Temp Water Temp Dewpoint Dewpoint Depression Visibility Wind Speed Wind Dir Waves Ship Positions

Daishinmaru No.3

Last reported at 2017-Dec-09 09:26 UTC. Time now 2017-Dec-11 01:59 UTC.
Position N 33°42' E 129°57'.

Length 70 m; draft 3.5 m.

Type: Cargo ship. MMSI: 431600252.

Date/timePositionNaut miles runAvg speedWind from/ knotsBaromVisibWave heightAir tempDewpointWater temp
2017-Dec-09 09:26N 33°42' E 129°57'410.5
2017-Dec-09 09:00N 33°44' E 130°02'510.3
2017-Dec-09 08:30N 33°47' E 130°07'510.2
2017-Dec-09 08:00N 33°50' E 130°12'510.4
2017-Dec-09 07:30N 33°53' E 130°17'510.4
2017-Dec-09 07:00N 33°55' E 130°23'510.7
2017-Dec-09 06:30N 33°57' E 130°29'510.9
2017-Dec-09 06:00N 33°58' E 130°35'510.9
2017-Dec-09 05:30N 33°58' E 130°42'3 5.4
2017-Dec-09 05:00N 33°56' E 130°45'0 0.0
2017-Dec-09 04:29N 33°56' E 130°45'0 0.0
2017-Dec-09 03:59N 33°56' E 130°45'0 0.0
2017-Dec-09 03:29N 33°56' E 130°45'0 0.0
2017-Dec-09 02:59N 33°56' E 130°45'0 0.0
2017-Dec-09 02:29N 33°56' E 130°45'0 0.0
2017-Dec-09 01:59N 33°56' E 130°45'0 0.0
2017-Dec-09 01:29N 33°56' E 130°45'0 0.0
2017-Dec-09 00:59N 33°56' E 130°45'0 0.0
2017-Dec-09 00:29N 33°56' E 130°45'0 0.0
2017-Dec-08 23:59N 33°56' E 130°45'0 0.0
2017-Dec-08 23:23N 33°56' E 130°45'0 0.0
2017-Dec-08 22:59N 33°56' E 130°45'0 0.0
2017-Dec-08 22:29N 33°56' E 130°45'0 0.8
2017-Dec-08 22:00N 33°56' E 130°44'3 6.5
2017-Dec-08 21:30N 33°58' E 130°48'5 9.2
2017-Dec-08 21:00N 33°58' E 130°53'0 0.6
2017-Dec-08 20:29N 33°58' E 130°54'0 0.1
2017-Dec-08 19:59N 33°58' E 130°54'0 0.1
2017-Dec-08 19:29N 33°58' E 130°54'0 0.1
2017-Dec-08 18:59N 33°58' E 130°54'0 0.0
2017-Dec-08 18:29N 33°58' E 130°54'0 0.1
2017-Dec-08 17:59N 33°58' E 130°54'0 0.0
2017-Dec-08 17:29N 33°58' E 130°54'0 0.1
2017-Dec-08 16:53N 33°58' E 130°54'0 0.0
2017-Dec-08 16:29N 33°58' E 130°54'0 0.0
2017-Dec-08 15:59N 33°58' E 130°54'0 0.1
2017-Dec-08 15:29N 33°58' E 130°54'0 0.1
2017-Dec-08 14:59N 33°58' E 130°54'0 0.0
2017-Dec-08 14:29N 33°58' E 130°54'0 0.0
2017-Dec-08 13:59N 33°58' E 130°54'0 0.0
2017-Dec-08 13:26N 33°58' E 130°54'0 0.0
2017-Dec-08 12:59N 33°58' E 130°54'0 0.0
2017-Dec-08 12:29N 33°58' E 130°54'0 0.0
2017-Dec-08 11:59N 33°58' E 130°54'0 0.0
2017-Dec-08 11:29N 33°58' E 130°54'0 0.1
2017-Dec-08 10:59N 33°58' E 130°54'0 0.1
2017-Dec-08 10:29N 33°58' E 130°54'0 0.1
2017-Dec-08 09:59N 33°58' E 130°54'0 0.1
2017-Dec-08 09:29N 33°58' E 130°54'0 0.0
2017-Dec-08 08:59N 33°58' E 130°54'0 0.0
2017-Dec-08 08:29N 33°58' E 130°54'0 0.0
2017-Dec-08 07:59N 33°58' E 130°54'0 0.0
2017-Dec-08 07:29N 33°58' E 130°54'0 0.0
2017-Dec-08 06:59N 33°58' E 130°54'0 0.0
2017-Dec-08 06:29N 33°58' E 130°54'0 0.0
2017-Dec-08 05:59N 33°58' E 130°54'0 0.0
2017-Dec-08 05:29N 33°58' E 130°54'0 0.0
2017-Dec-08 04:59N 33°58' E 130°54'0 0.1
2017-Dec-08 04:29N 33°58' E 130°54'0 0.1
2017-Dec-08 03:59N 33°58' E 130°54'0 0.0
2017-Dec-08 03:29N 33°58' E 130°54'0 0.0
2017-Dec-08 02:59N 33°58' E 130°54'0 0.0
2017-Dec-08 02:28N 33°58' E 130°54'0 0.0
2017-Dec-08 01:59N 33°58' E 130°54'0 0.0
2017-Dec-08 01:29N 33°58' E 130°54'0 0.0
2017-Dec-08 00:59N 33°58' E 130°54'0 0.0
2017-Dec-08 00:29N 33°58' E 130°54'0 0.0
2017-Dec-07 23:59N 33°58' E 130°54'0 0.0
2017-Dec-07 23:29N 33°58' E 130°54'0 0.0
2017-Dec-07 22:59N 33°58' E 130°54'0 0.0
2017-Dec-07 22:26N 33°58' E 130°54'0 0.0
2017-Dec-07 21:59N 33°58' E 130°54'0 0.1
2017-Dec-07 21:29N 33°58' E 130°54'0 0.0
2017-Dec-07 20:59N 33°58' E 130°54'0 0.0
2017-Dec-07 20:29N 33°58' E 130°54'0 0.0
2017-Dec-07 19:59N 33°58' E 130°54'0 0.0
2017-Dec-07 19:28N 33°58' E 130°54'0 0.0
2017-Dec-07 18:58N 33°58' E 130°54'0 0.0
2017-Dec-07 18:28N 33°58' E 130°54'0 0.0
2017-Dec-07 17:59N 33°58' E 130°54'0 0.1
2017-Dec-07 17:25N 33°58' E 130°54'0 0.1
2017-Dec-07 16:59N 33°58' E 130°54'0 0.0
2017-Dec-07 16:28N 33°58' E 130°54'0 0.2
2017-Dec-07 16:01N 33°58' E 130°54'5 9.0
2017-Dec-07 15:30N 33°58' E 130°48'510.8
2017-Dec-07 15:00N 33°57' E 130°42'611.2
2017-Dec-07 14:30N 33°57' E 130°35'510.8
2017-Dec-07 14:00N 33°55' E 130°29'510.9
2017-Dec-07 13:30N 33°51' E 130°25'611.0
2017-Dec-07 13:00N 33°47' E 130°20'510.9
2017-Dec-07 12:30N 33°43' E 130°15'510.9
2017-Dec-07 12:00N 33°40' E 130°10'710.9
2017-Dec-07 11:21N 33°37' E 130°02'  
2017-Dec-03 07:11N 33°20' E 129°49'15 8.2
2017-Dec-03 05:23N 33°35' E 129°48'611.0
2017-Dec-03 04:48N 33°39' E 129°54'411.3
2017-Dec-03 04:25N 33°42' E 129°58'511.3
2017-Dec-03 04:00N 33°45' E 130°02'611.0
2017-Dec-03 03:30N 33°48' E 130°08'611.2
2017-Dec-03 03:00N 33°51' E 130°14'611.1
2017-Dec-03 02:30N 33°54' E 130°19'510.8
2017-Dec-03 02:00N 33°56' E 130°25'511.0
2017-Dec-03 01:30N 33°57' E 130°32'510.9
2017-Dec-03 01:00N 33°58' E 130°38'511.0
2017-Dec-03 00:30N 33°58' E 130°45'611.5
2017-Dec-03 00:00N 33°57' E 130°52'4 8.7
2017-Dec-02 23:30N 33°57' E 130°57'510.3
2017-Dec-02 23:01N 33°57' E 131°03'611.6
2017-Dec-02 22:31N 33°51' E 131°03'510.7
2017-Dec-02 22:00N 33°47' E 131°00'0 0.6
2017-Dec-02 21:27N 33°46' E 130°60'0 0.0
2017-Dec-02 20:57N 33°46' E 130°60'0 0.0
2017-Dec-02 20:27N 33°46' E 130°60'0 0.0
2017-Dec-02 19:57N 33°46' E 130°60'0 0.0
2017-Dec-02 19:27N 33°46' E 130°60'0 0.0
2017-Dec-02 18:57N 33°46' E 130°60'0 0.0
2017-Dec-02 18:27N 33°46' E 130°60'0 0.0
2017-Dec-02 17:57N 33°46' E 130°60'0 0.0
2017-Dec-02 17:27N 33°46' E 130°60'0 0.0
2017-Dec-02 16:57N 33°46' E 130°60'0 0.0
2017-Dec-02 16:27N 33°46' E 130°60'0 0.0
2017-Dec-02 15:57N 33°46' E 130°60'0 0.0
2017-Dec-02 15:27N 33°46' E 130°60'0 0.0
2017-Dec-02 14:57N 33°46' E 130°60'0 0.0
2017-Dec-02 14:27N 33°46' E 130°60'0 0.0
2017-Dec-02 13:57N 33°46' E 130°60'0 0.0
2017-Dec-02 13:27N 33°46' E 130°60'0 0.0
2017-Dec-02 12:57N 33°46' E 130°60'0 0.0
2017-Dec-02 12:27N 33°46' E 130°60'0 0.0
2017-Dec-02 11:57N 33°46' E 130°60'0 0.0
2017-Dec-02 11:15N 33°46' E 130°60'0 0.0
2017-Dec-02 11:00N 33°46' E 130°60'0 0.0
2017-Dec-02 10:27N 33°46' E 130°60'0 0.0
2017-Dec-02 09:57N 33°46' E 130°60'0 0.0
2017-Dec-02 09:27N 33°46' E 130°60'0 0.0
2017-Dec-02 08:57N 33°46' E 130°60'0 0.0
2017-Dec-02 08:27N 33°46' E 130°60'0 0.0
2017-Dec-02 07:57N 33°46' E 130°60'0 0.0
2017-Dec-02 07:27N 33°46' E 130°60'0 0.0
2017-Dec-02 06:57N 33°46' E 130°60'0 0.0
2017-Dec-02 06:21N 33°46' E 130°60'0 0.0
2017-Dec-02 05:57N 33°46' E 130°60'0 0.0
2017-Dec-02 05:30N 33°46' E 130°60'0 0.0
2017-Dec-02 04:57N 33°46' E 130°60'0 0.0
2017-Dec-02 04:15N 33°46' E 130°60'0 0.0
2017-Dec-02 03:57N 33°46' E 130°60'0 0.0
2017-Dec-02 03:21N 33°46' E 130°60'0 0.0
2017-Dec-02 02:54N 33°46' E 130°60'0 0.0
2017-Dec-02 02:21N 33°46' E 130°60'0 0.9
2017-Dec-02 02:00N 33°47' E 131°00'1 1.0
2017-Dec-02 01:22N 33°47' E 131°00'0 0.0
2017-Dec-02 00:58N 33°47' E 131°00'0 0.0
2017-Dec-02 00:28N 33°47' E 131°00'0 0.0
2017-Dec-01 23:58N 33°47' E 131°00'0 0.0
2017-Dec-01 23:28N 33°47' E 131°00'0 0.0
2017-Dec-01 22:58N 33°47' E 131°00'2 3.7
2017-Dec-01 22:31N 33°48' E 131°02'2 4.9
2017-Dec-01 22:00N 33°49' E 131°05'3 6.3
2017-Dec-01 21:30N 33°48' E 131°08'510.2
2017-Dec-01 21:00N 33°48' E 131°15'510.2
2017-Dec-01 20:30N 33°47' E 131°21'510.3
2017-Dec-01 20:00N 33°47' E 131°27'510.5
2017-Dec-01 19:30N 33°47' E 131°33'510.5
2017-Dec-01 19:00N 33°47' E 131°40'510.5
2017-Dec-01 18:29N 33°46' E 131°46'1310.4
2017-Dec-01 17:13N 33°46' E 132°02'210.1
2017-Dec-01 17:00N 33°46' E 132°04'610.8
2017-Dec-01 16:28N 33°49' E 132°10'1110.5
2017-Dec-01 15:24N 33°51' E 132°24'612.1
2017-Dec-01 14:54N 33°53' E 132°31'512.7
2017-Dec-01 14:30N 33°54' E 132°36'613.1
2017-Dec-01 14:00N 33°58' E 132°43'9210.3
2017-Dec-01 05:03N 34°39' E 134°23'110.1
2017-Dec-01 04:55N 34°39' E 134°24'410.1
2017-Dec-01 04:30N 34°41' E 134°29'610.0
2017-Dec-01 03:52N 34°42' E 134°37'410.1
2017-Dec-01 03:27N 34°43' E 134°42'4 9.2
2017-Dec-01 03:00N 34°45' E 134°46'0 0.8
2017-Dec-01 02:30N 34°45' E 134°46'0 0.0
2017-Dec-01 01:59N 34°45' E 134°46'0 0.0
2017-Dec-01 01:30N 34°45' E 134°46'0 0.0
2017-Dec-01 01:00N 34°45' E 134°46'0 0.0
2017-Dec-01 00:30N 34°45' E 134°46'0 0.0
2017-Dec-01 00:00N 34°45' E 134°46'0 0.0
2017-Nov-30 23:30N 34°45' E 134°46'0 0.0
2017-Nov-30 23:00N 34°45' E 134°46'0 0.1
2017-Nov-30 22:30N 34°45' E 134°46'1 1.4
2017-Nov-30 22:00N 34°45' E 134°46'0 0.0
2017-Nov-30 21:31N 34°45' E 134°46'0 0.0
2017-Nov-30 20:55N 34°45' E 134°46'0 0.0
2017-Nov-30 20:31N 34°45' E 134°46'0 0.0
2017-Nov-30 20:01N 34°45' E 134°46'0 0.0
2017-Nov-30 19:30N 34°45' E 134°46'0 0.0
2017-Nov-30 19:00N 34°45' E 134°46'0 0.0
2017-Nov-30 18:30N 34°45' E 134°46'0 0.0
2017-Nov-30 16:48N 34°45' E 134°46'0 0.0
2017-Nov-30 16:30N 34°45' E 134°46'0 0.0
2017-Nov-30 15:54N 34°45' E 134°46'0 0.0
2017-Nov-30 13:54N 34°45' E 134°46'0 0.0
2017-Nov-30 12:18N 34°45' E 134°46'0 0.1
2017-Nov-30 11:48N 34°45' E 134°46'0 0.0
2017-Nov-30 11:24N 34°45' E 134°46'0 0.0
2017-Nov-30 11:00N 34°45' E 134°46'0 0.1
2017-Nov-30 10:00N 34°45' E 134°46'0 0.0
2017-Nov-30 09:30N 34°45' E 134°46'0 0.0
2017-Nov-30 09:00N 34°45' E 134°46'0 0.0
2017-Nov-30 07:48N 34°45' E 134°46'0 0.0
2017-Nov-30 07:30N 34°45' E 134°46'0 0.0
2017-Nov-30 07:00N 34°45' E 134°46'0 0.0
2017-Nov-30 06:24N 34°45' E 134°46'0 0.0
2017-Nov-30 06:00N 34°45' E 134°46'0 0.0
2017-Nov-30 05:24N 34°45' E 134°46'1 3.4
2017-Nov-30 05:00N 34°43' E 134°45'4 8.3
2017-Nov-30 04:30N 34°44' E 134°41'4 0.3
2017-Nov-29 15:18N 34°47' E 134°38'  

Dump ship's entire track history